Time;durP1;ratioP1;P1;durP2;ratioP2;P2;SDS_P1;SDS_P2;PMS_P1;PMS_P2;Temp;Humidity;BMP_temperature;BMP_pressure;BME280_temperature;BME280_humidity;BME280_pressure;Samples;Min_cycle;Max_cycle;Signal;HPM_P1;HPM_P2
2023/10/05 00:01:30;;;;;;;27.98;23.35;;;22.00;1.00;;;;;;5048106;28;20391;-65
2023/10/05 00:03:56;;;;;;;32.35;23.80;;;22.00;1.00;;;;;;5048181;28;20052;-65
2023/10/05 00:06:25;;;;;;;31.00;24.33;;;22.10;1.00;;;;;;5046429;28;20056;-65
2023/10/05 00:08:56;;;;;;;28.52;23.83;;;22.20;1.00;;;;;;5048568;28;20045;-65
2023/10/05 00:11:28;;;;;;;27.90;23.52;;;22.00;1.00;;;;;;5065534;28;20086;-65
2023/10/05 00:14:04;;;;;;;40.58;24.27;;;21.90;1.00;;;;;;5066815;28;20083;-65
2023/10/05 00:16:38;;;;;;;33.97;24.73;;;21.90;1.00;;;;;;5067771;28;20098;-65
2023/10/05 00:19:13;;;;;;;32.53;24.40;;;21.90;1.00;;;;;;5055574;28;20052;-65
2023/10/05 00:21:50;;;;;;;28.50;23.88;;;22.10;1.00;;;;;;5048219;28;20365;-65
2023/10/05 00:24:19;;;;;;;30.75;23.05;;;22.10;1.00;;;;;;5047971;28;20049;-65
2023/10/05 00:26:45;;;;;;;27.15;23.15;;;22.10;99.90;;;;;;5047690;28;20414;-65
2023/10/05 00:29:34;;;;;;;36.00;23.95;;;22.10;99.90;;;;;;5047847;28;20041;-65
2023/10/05 00:32:00;;;;;;;28.83;23.45;;;22.00;99.90;;;;;;5046812;28;20049;-64
2023/10/05 00:34:28;;;;;;;27.95;23.73;;;22.00;1.00;;;;;;5048265;28;20051;-65
2023/10/05 00:36:59;;;;;;;32.97;24.08;;;22.00;1.00;;;;;;5048113;28;20067;-62
2023/10/05 00:39:26;;;;;;;32.30;23.70;;;22.40;1.00;;;;;;5046480;28;20505;-63
2023/10/05 00:44:32;;;;;;;32.83;24.42;;;22.00;13.90;;;;;;5047764;28;20048;-62
2023/10/05 00:47:03;;;;;;;30.02;24.45;;;21.80;93.20;;;;;;5064511;28;20510;-63
2023/10/05 00:49:52;;;;;;;27.30;24.48;;;21.80;99.90;;;;;;5067563;28;20044;-62
2023/10/05 00:52:24;;;;;;;33.40;25.13;;;22.00;99.90;;;;;;5067400;28;20060;-63
2023/10/05 00:54:53;;;;;;;28.75;23.88;;;22.00;99.90;;;;;;5067528;28;20052;-64
2023/10/05 00:57:24;;;;;;;31.80;24.95;;;21.90;99.90;;;;;;5067532;28;20171;-63
2023/10/05 01:00:10;;;;;;;31.42;25.23;;;21.80;99.90;;;;;;5068633;28;20055;-64
2023/10/05 01:02:44;;;;;;;33.35;24.85;;;22.00;1.00;;;;;;5058466;28;20041;-63
2023/10/05 01:05:15;;;;;;;35.05;24.23;;;22.20;1.00;;;;;;5068240;28;20087;-62
2023/10/05 01:12:43;;;;;;;32.30;24.73;;;21.80;56.70;;;;;;5071627;28;20132;-63
2023/10/05 01:15:10;;;;;;;28.10;23.40;;;21.80;78.90;;;;;;5071357;28;20048;-62
2023/10/05 01:17:37;;;;;;;28.67;24.67;;;21.90;94.00;;;;;;5070487;28;20109;-63
2023/10/05 01:20:12;;;;;;;35.00;24.50;;;22.00;71.70;;;;;;5051478;28;20056;-63
2023/10/05 01:22:41;;;;;;;36.22;24.52;;;22.00;1.00;;;;;;5051221;28;20068;-62
2023/10/05 01:25:08;;;;;;;32.92;24.55;;;21.90;1.00;;;;;;5050971;28;20106;-63
2023/10/05 01:27:38;;;;;;;28.52;23.63;;;22.00;1.00;;;;;;5051019;28;20099;-63
2023/10/05 01:30:04;;;;;;;30.23;23.63;;;22.50;1.00;;;;;;5051123;28;20044;-63
2023/10/05 01:32:32;;;;;;;35.67;25.23;;;22.00;99.90;;;;;;5051036;28;20048;-63
2023/10/05 01:34:58;;;;;;;34.65;25.23;;;22.10;99.90;;;;;;5050988;28;20052;-63
2023/10/05 01:37:26;;;;;;;36.20;26.38;;;22.30;99.90;;;;;;5051010;28;20033;-63
2023/10/05 01:39:52;;;;;;;33.45;26.58;;;22.50;1.00;;;;;;5050975;28;20044;-63
2023/10/05 01:42:18;;;;;;;35.20;26.40;;;21.90;1.00;;;;;;5050866;28;20041;-63
2023/10/05 01:44:47;;;;;;;30.00;25.20;;;22.30;99.90;;;;;;5050918;28;20048;-62
2023/10/05 01:47:17;;;;;;;36.65;26.48;;;21.90;99.90;;;;;;5051011;28;20102;-65
2023/10/05 01:49:46;;;;;;;35.80;26.40;;;21.80;99.90;;;;;;5050807;28;20079;-65
2023/10/05 01:52:16;;;;;;;38.95;28.20;;;21.80;99.90;;;;;;5050534;28;20392;-65
2023/10/05 01:54:43;;;;;;;35.47;25.55;;;21.90;1.00;;;;;;5050700;28;20257;-65
2023/10/05 01:57:09;;;;;;;38.10;27.38;;;21.90;1.00;;;;;;5050514;28;20072;-65
2023/10/05 01:59:37;;;;;;;35.80;27.85;;;21.80;89.60;;;;;;5050535;28;20056;-65
2023/10/05 02:02:15;;;;;;;36.60;27.70;;;22.20;99.90;;;;;;5050437;28;20171;-65
2023/10/05 02:04:47;;;;;;;37.80;28.00;;;22.10;99.90;;;;;;5050250;28;20052;-66
2023/10/05 02:07:15;;;;;;;40.90;26.45;;;21.80;1.00;;;;;;5050179;28;20076;-66
2023/10/05 02:09:41;;;;;;;35.33;27.10;;;22.90;1.00;;;;;;5050086;28;20037;-65
2023/10/05 02:12:07;;;;;;;39.10;26.02;;;21.90;1.00;;;;;;5049385;28;20118;-65
2023/10/05 02:14:36;;;;;;;37.78;27.17;;;21.90;99.90;;;;;;5050477;28;20483;-65
2023/10/05 02:17:03;;;;;;;38.15;27.48;;;21.80;99.90;;;;;;5048689;28;20045;-65
2023/10/05 02:19:30;;;;;;;33.42;25.15;;;21.80;1.00;;;;;;5050266;28;20526;-65
2023/10/05 02:21:58;;;;;;;32.75;25.75;;;22.10;99.90;;;;;;5050091;28;20060;-66
2023/10/05 02:24:25;;;;;;;34.97;27.02;;;22.00;99.90;;;;;;5050040;28;20687;-65
2023/10/05 02:29:21;;;;;;;41.70;28.20;;;21.80;99.90;;;;;;5050006;28;20064;-65
2023/10/05 02:32:04;;;;;;;36.50;29.23;;;21.80;1.00;;;;;;5052026;28;20040;-64
2023/10/05 02:37:05;;;;;;;37.90;27.55;;;21.60;22.80;;;;;;5070296;28;20113;-65
2023/10/05 02:39:32;;;;;;;39.00;28.08;;;21.60;93.60;;;;;;5068969;28;20127;-65
2023/10/05 02:41:58;;;;;;;41.70;28.88;;;21.90;99.90;;;;;;5069670;28;20063;-65
2023/10/05 02:44:30;;;;;;;41.00;28.52;;;21.60;99.90;;;;;;5069704;28;20036;-65
2023/10/05 02:46:55;;;;;;;41.30;29.05;;;21.80;99.90;;;;;;5061745;28;20128;-66
2023/10/05 02:49:25;;;;;;;38.63;28.80;;;21.50;99.90;;;;;;5049544;28;20119;-65
2023/10/05 02:51:54;;;;;;;35.63;29.25;;;21.60;99.90;;;;;;5049353;28;20053;-65
2023/10/05 02:54:24;;;;;;;43.17;28.63;;;21.70;99.90;;;;;;5048269;28;20049;-66
2023/10/05 02:56:53;;;;;;;35.25;28.25;;;21.60;99.90;;;;;;5049422;28;20135;-63
2023/10/05 02:59:21;;;;;;;38.88;29.50;;;21.90;99.90;;;;;;5049386;28;20053;-63
2023/10/05 03:01:47;;;;;;;40.47;30.92;;;21.50;99.90;;;;;;5047901;28;20556;-63
2023/10/05 03:06:39;;;;;;;40.15;31.98;;;21.50;99.90;;;;;;5053729;28;20052;-63
2023/10/05 03:09:08;;;;;;;39.95;30.63;;;21.90;99.90;;;;;;5069226;28;20044;-63
2023/10/05 03:11:41;;;;;;;44.92;31.52;;;21.40;99.90;;;;;;5068786;28;20089;-62
2023/10/05 03:14:09;;;;;;;43.08;31.23;;;21.50;99.90;;;;;;5069502;28;20774;-64
2023/10/05 03:16:43;;;;;;;41.63;32.30;;;21.50;99.90;;;;;;5059897;28;20044;-62
2023/10/05 03:19:20;;;;;;;40.83;30.15;;;21.80;99.90;;;;;;5049008;28;20120;-63
2023/10/05 03:21:50;;;;;;;40.78;30.77;;;21.90;99.90;;;;;;5049239;28;20040;-63
2023/10/05 03:24:19;;;;;;;40.28;30.52;;;22.00;99.90;;;;;;5049286;28;20056;-63
2023/10/05 03:26:46;;;;;;;37.28;30.80;;;21.70;99.90;;;;;;5048992;28;20521;-62
2023/10/05 03:29:13;;;;;;;36.45;29.85;;;21.60;99.90;;;;;;5047710;28;20048;-63
2023/10/05 03:31:55;;;;;;;40.50;30.58;;;22.00;99.90;;;;;;5054035;28;20036;-63
2023/10/05 03:34:26;;;;;;;41.80;30.33;;;22.00;99.90;;;;;;5068707;28;20059;-63
2023/10/05 03:36:55;;;;;;;40.80;30.30;;;22.00;99.90;;;;;;5067317;28;20049;-62
2023/10/05 03:39:23;;;;;;;39.47;30.90;;;21.70;99.90;;;;;;5068570;28;20044;-62
2023/10/05 03:41:49;;;;;;;39.95;31.30;;;21.60;99.90;;;;;;5068155;28;20044;-62
2023/10/05 03:44:17;;;;;;;39.88;34.65;;;21.70;99.90;;;;;;5068778;28;20044;-63
2023/10/05 03:46:46;;;;;;;43.40;34.38;;;21.70;99.90;;;;;;5059063;28;20044;-63
2023/10/05 03:49:13;;;;;;;43.72;33.83;;;21.50;99.90;;;;;;5061777;28;20473;-63
2023/10/05 03:51:43;;;;;;;45.97;34.30;;;21.90;99.90;;;;;;5068077;28;20147;-63
2023/10/05 03:54:08;;;;;;;44.53;35.42;;;21.60;99.90;;;;;;5066647;28;20036;-62
2023/10/05 03:56:36;;;;;;;42.72;34.88;;;21.60;99.90;;;;;;5067951;28;20048;-62
2023/10/05 03:59:02;;;;;;;43.33;32.65;;;21.80;99.90;;;;;;5068305;28;20127;-62
2023/10/05 04:01:28;;;;;;;45.60;32.45;;;21.50;99.90;;;;;;5063341;28;20093;-63
2023/10/05 04:03:54;;;;;;;41.20;32.08;;;21.80;99.90;;;;;;5050619;28;20503;-63
2023/10/05 04:06:20;;;;;;;41.33;32.47;;;22.00;99.90;;;;;;5053255;28;20056;-63
2023/10/05 04:08:47;;;;;;;47.38;33.22;;;22.00;99.90;;;;;;5068061;28;20510;-65
2023/10/05 04:11:15;;;;;;;42.17;33.75;;;22.00;99.90;;;;;;5063777;28;20419;-65
2023/10/05 04:13:40;;;;;;;38.03;31.83;;;21.80;99.90;;;;;;5048280;28;20037;-66
2023/10/05 04:16:10;;;;;;;41.97;32.03;;;22.00;99.90;;;;;;5048184;28;20410;-65
2023/10/05 04:18:38;;;;;;;44.10;33.85;;;21.80;99.90;;;;;;5048323;28;20143;-66
2023/10/05 04:21:05;;;;;;;40.78;33.30;;;21.90;99.90;;;;;;5053264;28;20087;-66
2023/10/05 04:23:32;;;;;;;45.47;33.83;;;21.40;99.90;;;;;;5068119;28;20091;-65
2023/10/05 04:25:57;;;;;;;46.05;33.72;;;21.50;99.90;;;;;;5065865;28;20041;-66
2023/10/05 04:28:32;;;;;;;44.90;33.83;;;21.90;99.90;;;;;;5051282;28;20043;-65
2023/10/05 04:30:58;;;;;;;42.10;30.23;;;21.80;99.90;;;;;;5062137;28;20040;-66
2023/10/05 04:33:26;;;;;;;39.67;31.88;;;21.60;99.90;;;;;;5067338;28;20521;-66
2023/10/05 04:35:52;;;;;;;44.50;32.47;;;21.60;99.90;;;;;;5062800;28;20460;-65
2023/10/05 04:38:25;;;;;;;39.53;31.27;;;21.60;99.90;;;;;;5064485;28;20095;-65
2023/10/05 04:40:51;;;;;;;43.92;31.08;;;22.10;99.90;;;;;;5047350;28;20055;-66
2023/10/05 04:43:17;;;;;;;39.90;31.70;;;21.90;99.90;;;;;;5047577;28;20048;-65
2023/10/05 04:45:42;;;;;;;40.58;32.42;;;21.40;99.90;;;;;;5054311;28;20121;-66
2023/10/05 04:48:12;;;;;;;47.95;32.50;;;21.90;99.90;;;;;;5067689;28;20090;-65
2023/10/05 04:50:40;;;;;;;48.05;32.83;;;21.80;99.90;;;;;;5063279;28;20064;-65
2023/10/05 04:53:09;;;;;;;41.13;32.30;;;21.90;99.90;;;;;;5063368;28;20049;-66
2023/10/05 04:55:41;;;;;;;39.05;31.10;;;21.70;99.90;;;;;;5047471;28;20056;-66
2023/10/05 04:58:24;;;;;;;44.95;32.25;;;21.70;99.90;;;;;;5047485;28;20095;-66
2023/10/05 05:01:14;;;;;;;44.25;32.33;;;21.50;99.90;;;;;;5057708;28;20040;-65
2023/10/05 05:06:20;;;;;;;45.67;33.20;;;21.90;99.90;;;;;;5048799;28;20053;-65
2023/10/05 05:08:46;;;;;;;42.25;31.42;;;21.80;99.90;;;;;;5057822;28;20353;-63
2023/10/05 05:11:21;;;;;;;39.85;31.65;;;21.50;99.90;;;;;;5067025;28;20040;-63
2023/10/05 05:13:51;;;;;;;43.23;32.90;;;21.50;99.90;;;;;;5053113;28;20039;-63
2023/10/05 05:16:16;;;;;;;44.65;33.25;;;21.90;99.90;;;;;;5051184;28;20371;-63
2023/10/05 05:18:43;;;;;;;45.35;34.33;;;21.70;99.90;;;;;;5061797;28;20043;-63
2023/10/05 05:21:10;;;;;;;47.00;34.53;;;22.00;99.90;;;;;;5066981;28;20068;-63
2023/10/05 05:23:35;;;;;;;48.97;31.27;;;21.60;99.90;;;;;;5054070;28;20032;-64
2023/10/05 05:26:03;;;;;;;41.97;31.20;;;22.10;99.90;;;;;;5050383;28;20514;-63
2023/10/05 05:28:34;;;;;;;38.95;29.75;;;21.90;99.90;;;;;;5056458;28;20053;-63
2023/10/05 05:31:08;;;;;;;38.80;31.70;;;21.70;99.90;;;;;;5054068;28;20048;-63
2023/10/05 05:33:38;;;;;;;44.67;32.20;;;21.70;99.90;;;;;;5059604;28;20043;-63
2023/10/05 05:36:13;;;;;;;41.47;30.33;;;21.80;99.90;;;;;;5065522;28;20410;-62
2023/10/05 05:38:40;;;;;;;41.97;32.67;;;22.00;99.90;;;;;;5058528;28;20382;-63
2023/10/05 05:41:13;;;;;;;39.92;30.80;;;21.80;99.90;;;;;;5061438;28;20072;-63
2023/10/05 05:43:41;;;;;;;44.25;30.45;;;22.00;99.90;;;;;;5063537;28;20171;-64
2023/10/05 05:46:14;;;;;;;44.00;29.92;;;21.90;99.90;;;;;;5064743;28;20079;-63
2023/10/05 05:48:43;;;;;;;49.85;31.65;;;21.90;99.90;;;;;;5071034;28;20415;-63
2023/10/05 05:51:14;;;;;;;44.17;31.30;;;21.60;99.90;;;;;;5058475;28;20064;-63
2023/10/05 05:53:41;;;;;;;41.08;32.50;;;22.00;99.90;;;;;;5052262;28;20497;-63
2023/10/05 05:56:07;;;;;;;41.80;31.42;;;22.50;99.90;;;;;;5053006;28;20045;-63
2023/10/05 05:58:32;;;;;;;44.17;34.08;;;21.90;99.90;;;;;;5050817;28;20498;-62
2023/10/05 06:00:58;;;;;;;38.70;32.63;;;21.40;99.90;;;;;;5059090;28;20074;-63
2023/10/05 06:03:25;;;;;;;49.78;35.17;;;21.20;99.90;;;;;;5051770;28;20072;-63
2023/10/05 06:05:51;;;;;;;39.33;34.25;;;21.80;99.90;;;;;;5050618;28;20411;-62
2023/10/05 06:08:17;;;;;;;37.55;33.65;;;21.60;99.90;;;;;;5060046;28;20032;-62
2023/10/05 06:10:46;;;;;;;39.63;34.70;;;21.40;99.90;;;;;;5062232;28;20221;-64
2023/10/05 06:13:11;;;;;;;39.50;32.38;;;21.50;99.90;;;;;;5058979;28;20040;-65
2023/10/05 06:15:38;;;;;;;41.40;33.00;;;21.30;99.90;;;;;;5060369;28;20096;-64
2023/10/05 06:18:03;;;;;;;40.63;32.78;;;22.00;99.90;;;;;;5056376;28;20091;-63
2023/10/05 06:20:30;;;;;;;41.58;32.22;;;22.00;99.90;;;;;;5053283;28;20132;-63
2023/10/05 06:22:55;;;;;;;39.92;32.80;;;21.60;99.90;;;;;;5062026;28;20066;-63
2023/10/05 06:25:21;;;;;;;36.30;32.35;;;21.60;99.90;;;;;;5053875;28;20494;-63
2023/10/05 06:27:47;;;;;;;38.47;30.30;;;22.20;99.90;;;;;;5059862;28;20036;-66
2023/10/05 06:30:14;;;;;;;44.05;30.70;;;22.20;99.90;;;;;;5063300;28;20040;-64
2023/10/05 06:32:40;;;;;;;41.90;30.13;;;22.00;99.90;;;;;;5065068;28;20041;-66
2023/10/05 06:35:11;;;;;;;45.67;32.40;;;22.20;99.90;;;;;;5058472;28;20029;-67
2023/10/05 06:37:38;;;;;;;42.13;30.27;;;21.80;99.90;;;;;;5059765;28;20045;-61
2023/10/05 06:40:14;;;;;;;39.92;30.95;;;21.90;99.90;;;;;;5056917;28;20423;-64
2023/10/05 06:42:41;;;;;;;39.20;30.58;;;21.80;99.90;;;;;;5060079;28;20040;-60
2023/10/05 06:45:11;;;;;;;40.47;31.60;;;22.10;99.90;;;;;;5055585;28;20036;-60
2023/10/05 06:47:37;;;;;;;43.50;30.42;;;21.80;99.90;;;;;;5055005;28;20037;-60
2023/10/05 06:50:10;;;;;;;40.95;30.67;;;22.10;99.90;;;;;;5052286;28;20032;-60
2023/10/05 06:52:42;;;;;;;44.08;31.35;;;21.90;99.90;;;;;;5058181;28;20045;-65
2023/10/05 06:55:12;;;;;;;40.22;31.58;;;21.90;99.90;;;;;;5055358;28;20037;-63
2023/10/05 06:57:39;;;;;;;43.55;33.92;;;22.10;99.90;;;;;;5054032;28;20086;-65
2023/10/05 07:00:13;;;;;;;41.70;32.35;;;21.60;99.90;;;;;;5053213;28;20128;-65
2023/10/05 07:02:45;;;;;;;42.33;29.60;;;22.20;99.90;;;;;;5051988;28;20383;-64
2023/10/05 07:05:12;;;;;;;39.40;31.00;;;21.70;99.90;;;;;;5058434;28;20392;-62
2023/10/05 07:07:38;;;;;;;37.70;31.13;;;21.70;99.90;;;;;;5053151;28;20349;-63
2023/10/05 07:10:08;;;;;;;45.03;32.92;;;21.60;99.90;;;;;;5057246;28;20086;-63
2023/10/05 07:12:35;;;;;;;31.40;25.52;;;21.30;99.90;;;;;;5058173;28;20051;-63
2023/10/05 07:15:05;;;;;;;27.52;24.20;;;21.10;99.90;;;;;;5046025;28;20040;-63
2023/10/05 07:17:31;;;;;;;29.05;25.80;;;21.10;99.90;;;;;;5056639;28;20090;-63
2023/10/05 07:20:01;;;;;;;28.80;25.67;;;20.90;99.90;;;;;;5053773;28;20075;-64
2023/10/05 07:22:28;;;;;;;37.97;29.80;;;20.40;99.90;;;;;;5056619;28;20045;-63
2023/10/05 07:24:54;;;;;;;33.80;27.05;;;21.30;99.90;;;;;;5050020;28;20037;-63
2023/10/05 07:27:19;;;;;;;35.90;29.48;;;21.40;99.90;;;;;;5054321;28;20075;-65
2023/10/05 07:29:45;;;;;;;40.58;35.45;;;20.40;99.90;;;;;;5053805;28;20043;-63
2023/10/05 07:32:15;;;;;;;41.42;30.33;;;21.70;99.90;;;;;;5056265;28;20403;-65
2023/10/05 07:34:41;;;;;;;44.00;39.55;;;20.50;99.90;;;;;;5054334;28;20122;-63
2023/10/05 07:37:10;;;;;;;46.28;36.28;;;21.90;99.90;;;;;;5053434;28;20044;-64
2023/10/05 07:39:42;;;;;;;48.15;36.97;;;20.50;99.90;;;;;;5055649;28;20470;-64
2023/10/05 07:42:08;;;;;;;48.05;37.40;;;21.70;99.90;;;;;;5055401;28;20123;-63
2023/10/05 07:44:37;;;;;;;35.63;26.65;;;20.90;99.90;;;;;;5058175;28;20446;-63
2023/10/05 07:47:06;;;;;;;35.47;27.50;;;20.80;99.90;;;;;;5057523;28;20608;-65
2023/10/05 07:49:35;;;;;;;37.30;26.50;;;20.40;99.90;;;;;;5052118;28;20044;-66
2023/10/05 07:52:09;;;;;;;36.40;25.55;;;21.90;99.90;;;;;;5049302;28;20050;-67
2023/10/05 07:54:35;;;;;;;44.55;28.15;;;20.90;99.90;;;;;;5052568;28;20045;-65
2023/10/05 07:57:02;;;;;;;42.83;27.42;;;21.60;99.90;;;;;;5055503;28;20087;-65
2023/10/05 07:59:28;;;;;;;42.63;29.70;;;20.40;99.90;;;;;;5052427;28;20067;-66
2023/10/05 08:01:55;;;;;;;49.72;36.97;;;21.20;99.90;;;;;;5054276;28;20043;-65
2023/10/05 08:04:22;;;;;;;43.97;31.85;;;20.50;99.90;;;;;;5054415;28;20496;-65
2023/10/05 08:06:48;;;;;;;52.17;41.33;;;21.80;99.90;;;;;;5054883;28;20040;-65
2023/10/05 08:09:23;;;;;;;43.10;35.22;;;22.20;99.90;;;;;;5052348;28;20032;-66
2023/10/05 08:11:50;;;;;;;53.60;40.85;;;21.00;99.90;;;;;;5054292;28;20050;-65
2023/10/05 08:14:17;;;;;;;48.05;30.30;;;20.70;99.90;;;;;;5053278;28;20139;-66
2023/10/05 08:16:43;;;;;;;47.95;35.92;;;20.50;99.90;;;;;;5052685;28;20044;-66
2023/10/05 08:19:08;;;;;;;46.15;34.97;;;21.90;99.90;;;;;;5056313;28;20052;-67
2023/10/05 08:21:34;;;;;;;49.10;34.53;;;22.00;99.90;;;;;;5056157;28;20422;-66
2023/10/05 08:24:02;;;;;;;47.40;31.58;;;22.20;99.90;;;;;;5057540;28;20774;-66
2023/10/05 08:26:28;;;;;;;51.90;36.22;;;22.30;99.90;;;;;;5052014;28;20044;-67
2023/10/05 08:28:55;;;;;;;59.85;33.60;;;22.40;99.90;;;;;;5052753;28;20089;-66
2023/10/05 08:31:23;;;;;;;50.92;37.40;;;20.40;99.90;;;;;;5056382;28;20406;-66
2023/10/05 08:33:53;;;;;;;50.15;37.55;;;20.60;99.90;;;;;;5059813;28;20040;-66
2023/10/05 08:36:19;;;;;;;53.78;33.28;;;20.50;99.90;;;;;;5051566;28;20059;-66
2023/10/05 08:38:48;;;;;;;39.53;34.15;;;22.60;99.90;;;;;;5057299;28;20052;-66
2023/10/05 08:41:35;;;;;;;41.70;31.98;;;20.40;99.90;;;;;;5055462;28;20033;-66
2023/10/05 08:46:50;;;;;;;40.28;34.47;;;22.60;99.90;;;;;;5051953;28;20095;-66
2023/10/05 08:49:15;;;;;;;44.83;33.58;;;20.70;99.90;;;;;;5058525;28;21361;-65
2023/10/05 08:51:41;;;;;;;47.25;36.75;;;22.70;99.90;;;;;;5053753;28;20053;-66
2023/10/05 08:54:11;;;;;;;52.25;34.08;;;21.60;99.90;;;;;;5055364;28;20145;-66
2023/10/05 08:56:45;;;;;;;44.40;33.35;;;22.20;99.90;;;;;;5057371;28;20041;-66
2023/10/05 08:59:14;;;;;;;44.13;33.35;;;21.30;99.90;;;;;;5050193;28;20515;-65
2023/10/05 09:01:45;;;;;;;44.35;34.40;;;20.40;99.90;;;;;;5052402;28;20097;-66
2023/10/05 09:06:56;;;;;;;42.28;33.15;;;20.60;99.90;;;;;;5056214;28;20063;-65
2023/10/05 09:09:54;;;;;;;41.33;32.95;;;21.70;99.90;;;;;;5050158;28;20075;-64
2023/10/05 09:12:35;;;;;;;42.15;32.50;;;20.70;99.90;;;;;;5043187;28;20047;-64
2023/10/05 09:15:09;;;;;;;45.22;36.20;;;21.00;99.90;;;;;;5051204;28;20048;-64
2023/10/05 09:17:35;;;;;;;41.22;35.40;;;20.90;99.90;;;;;;5050049;28;20101;-65
2023/10/05 09:20:24;;;;;;;44.78;34.85;;;23.00;99.90;;;;;;5058804;28;21315;-66
2023/10/05 09:22:51;;;;;;;44.45;36.33;;;22.10;99.90;;;;;;5055762;28;20496;-64
2023/10/05 09:25:26;;;;;;;41.22;33.25;;;23.00;99.90;;;;;;5052438;28;20048;-64
2023/10/05 09:27:52;;;;;;;48.60;37.42;;;22.60;99.90;;;;;;5059625;28;20048;-64
2023/10/05 09:30:21;;;;;;;50.10;41.35;;;20.80;99.90;;;;;;5057790;28;20060;-63
2023/10/05 09:32:48;;;;;;;49.72;43.25;;;22.40;99.90;;;;;;5055589;28;20028;-64
2023/10/05 09:35:31;;;;;;;55.42;36.70;;;22.20;99.90;;;;;;5057858;28;20417;-64
2023/10/05 09:38:01;;;;;;;45.65;37.70;;;22.10;99.90;;;;;;5062560;28;20041;-65
2023/10/05 09:40:28;;;;;;;43.70;34.45;;;23.10;99.90;;;;;;5061845;28;20422;-65
2023/10/05 09:43:00;;;;;;;44.70;35.28;;;21.10;99.90;;;;;;5056116;28;20052;-65
2023/10/05 09:45:29;;;;;;;40.75;35.60;;;22.20;99.90;;;;;;5058928;28;20593;-63
2023/10/05 09:48:03;;;;;;;43.50;35.72;;;21.20;99.90;;;;;;5059734;28;20041;-64
2023/10/05 09:50:30;;;;;;;42.60;35.40;;;22.60;99.90;;;;;;5056333;28;20082;-65
2023/10/05 09:53:01;;;;;;;44.70;37.55;;;22.80;99.90;;;;;;5056897;28;20476;-65
2023/10/05 09:55:30;;;;;;;41.25;35.58;;;22.70;99.90;;;;;;5056666;28;20090;-64
2023/10/05 09:58:05;;;;;;;56.63;40.17;;;23.40;99.90;;;;;;5057267;28;20418;-64
2023/10/05 10:03:05;;;;;;;43.70;37.30;;;22.30;99.90;;;;;;5057426;28;20679;-65
2023/10/05 10:05:52;;;;;;;44.00;34.72;;;22.30;99.90;;;;;;5056088;28;20067;-63
2023/10/05 10:08:23;;;;;;;41.22;36.75;;;22.50;99.90;;;;;;5056968;28;20045;-65
2023/10/05 10:11:17;;;;;;;41.10;35.72;;;23.30;99.90;;;;;;5054674;28;20395;-65
2023/10/05 10:14:06;;;;;;;43.28;35.25;;;23.10;99.90;;;;;;5051231;28;20072;-65
2023/10/05 10:16:33;;;;;;;45.45;32.63;;;22.50;99.90;;;;;;5038419;28;20449;-64
2023/10/05 10:19:04;;;;;;;40.38;33.92;;;23.20;99.90;;;;;;5057194;28;20469;-66
2023/10/05 10:21:34;;;;;;;43.22;34.55;;;23.70;99.90;;;;;;5060973;28;20052;-64
2023/10/05 10:24:17;;;;;;;41.88;32.72;;;22.60;99.90;;;;;;5053468;28;20078;-65
2023/10/05 10:26:53;;;;;;;41.75;34.97;;;23.70;99.90;;;;;;5054826;28;20044;-66
2023/10/05 10:29:22;;;;;;;40.83;32.17;;;23.10;99.90;;;;;;5053455;28;20049;-65
2023/10/05 10:32:15;;;;;;;41.35;33.60;;;22.60;99.90;;;;;;5054020;28;20045;-64
2023/10/05 10:34:50;;;;;;;37.97;32.63;;;23.00;99.90;;;;;;5056633;28;20052;-64
2023/10/05 10:37:39;;;;;;;44.28;32.17;;;23.60;99.90;;;;;;5058168;28;20049;-64
2023/10/05 10:45:40;;;;;;;42.87;33.67;;;23.20;99.90;;;;;;5050795;28;20060;-64
2023/10/05 10:48:13;;;;;;;43.63;33.83;;;23.40;99.90;;;;;;5056840;28;20340;-65
2023/10/05 10:50:39;;;;;;;46.25;35.40;;;23.60;99.90;;;;;;5051612;28;20057;-64
2023/10/05 10:53:13;;;;;;;44.83;35.03;;;22.80;99.90;;;;;;5058865;28;20045;-64
2023/10/05 10:55:42;;;;;;;45.25;34.95;;;23.50;99.90;;;;;;5053389;28;20473;-65
2023/10/05 10:58:13;;;;;;;42.75;34.05;;;23.70;99.90;;;;;;5053623;28;20041;-64
2023/10/05 11:00:54;;;;;;;39.28;33.22;;;23.30;99.90;;;;;;5054910;28;20036;-65
2023/10/05 11:03:26;;;;;;;39.25;32.22;;;23.80;99.90;;;;;;5050718;28;20095;-65
2023/10/05 11:05:54;;;;;;;42.58;33.30;;;25.00;99.90;;;;;;5049447;28;20053;-64
2023/10/05 11:08:20;;;;;;;39.33;31.08;;;23.50;99.90;;;;;;5051981;28;20088;-64
2023/10/05 11:10:59;;;;;;;41.88;32.17;;;23.90;99.90;;;;;;5053030;28;20513;-65
2023/10/05 11:13:28;;;;;;;40.13;31.23;;;23.60;99.90;;;;;;5053946;28;20044;-65
2023/10/05 11:15:59;;;;;;;43.28;32.45;;;23.50;99.90;;;;;;5056326;28;20056;-63
2023/10/05 11:18:34;;;;;;;43.97;34.38;;;23.20;99.90;;;;;;5053689;28;20037;-66
2023/10/05 11:21:24;;;;;;;41.17;32.20;;;23.70;99.90;;;;;;5058712;28;20501;-66
2023/10/05 11:23:58;;;;;;;42.88;31.90;;;23.70;99.90;;;;;;5043397;28;20506;-65
2023/10/05 11:26:56;;;;;;;39.50;31.13;;;23.20;99.90;;;;;;5054249;28;20048;-66
2023/10/05 11:29:28;;;;;;;44.85;32.28;;;23.70;99.90;;;;;;5058049;28;20903;-66
2023/10/05 11:32:10;;;;;;;40.45;30.55;;;23.70;99.90;;;;;;5055587;28;20115;-68
2023/10/05 11:34:39;;;;;;;37.42;31.38;;;23.60;99.90;;;;;;5054394;28;20045;-67
2023/10/05 11:37:15;;;;;;;41.88;31.83;;;23.30;99.90;;;;;;5057298;28;20474;-68
2023/10/05 11:39:41;;;;;;;;;;;23.40;99.90;;;;;;5053736;28;20507;-67
2023/10/05 11:42:10;;;;;;;36.22;32.22;;;23.40;99.90;;;;;;5067501;28;20372;-67
2023/10/05 11:44:37;;;;;;;33.90;30.05;;;23.30;99.90;;;;;;5056925;28;20044;-66
2023/10/05 11:47:07;;;;;;;41.75;31.40;;;23.50;99.90;;;;;;5057169;28;20045;-66
2023/10/05 11:49:33;;;;;;;38.25;31.00;;;23.90;99.90;;;;;;5062237;28;20103;-66
2023/10/05 11:52:00;;;;;;;39.55;31.13;;;23.50;99.90;;;;;;5059357;28;20722;-67
2023/10/05 11:54:30;;;;;;;41.67;31.85;;;23.20;99.90;;;;;;5051321;28;20047;-67
2023/10/05 11:56:56;;;;;;;37.58;31.73;;;23.70;99.90;;;;;;5054550;28;20040;-67
2023/10/05 11:59:28;;;;;;;39.20;30.45;;;23.30;99.90;;;;;;5039883;28;20052;-68
2023/10/05 12:01:55;;;;;;;38.13;28.55;;;23.70;99.90;;;;;;5057332;28;20419;-67
2023/10/05 12:04:21;;;;;;;36.75;28.98;;;23.50;99.90;;;;;;5054620;28;20033;-67
2023/10/05 12:06:54;;;;;;;34.17;28.50;;;23.90;99.90;;;;;;5059237;28;20040;-66
2023/10/05 12:09:43;;;;;;;34.88;28.20;;;23.90;99.90;;;;;;5059654;28;20471;-65
2023/10/05 12:12:14;;;;;;;36.00;27.95;;;23.30;99.90;;;;;;5060919;28;20037;-66
2023/10/05 12:14:41;;;;;;;29.30;26.27;;;23.90;99.90;;;;;;5059110;28;20076;-68
2023/10/05 12:17:06;;;;;;;31.42;26.63;;;23.80;99.90;;;;;;5053226;28;20171;-66
2023/10/05 12:19:33;;;;;;;29.35;25.90;;;23.90;99.90;;;;;;5063831;28;20064;-68
2023/10/05 12:22:01;;;;;;;33.67;27.05;;;23.80;99.90;;;;;;5058895;28;20431;-67
2023/10/05 12:24:28;;;;;;;34.35;26.35;;;24.00;99.90;;;;;;5058280;28;20040;-67
2023/10/05 12:26:57;;;;;;;33.03;28.38;;;24.20;99.90;;;;;;5063463;28;20161;-67
2023/10/05 12:29:24;;;;;;;32.08;26.75;;;23.70;99.90;;;;;;5061563;28;20032;-67
2023/10/05 12:31:50;;;;;;;28.52;24.98;;;23.70;99.90;;;;;;5062369;28;20044;-67
2023/10/05 12:34:16;;;;;;;31.55;24.38;;;23.80;99.90;;;;;;5062094;28;20105;-67
2023/10/05 12:36:49;;;;;;;27.45;24.55;;;24.20;99.90;;;;;;5042702;28;20036;-66
2023/10/05 12:39:26;;;;;;;28.90;24.42;;;24.00;99.90;;;;;;5057566;28;20098;-66
2023/10/05 12:41:53;;;;;;;31.27;25.25;;;23.90;99.90;;;;;;5051680;28;20049;-66
2023/10/05 12:44:18;;;;;;;32.60;25.42;;;24.20;99.90;;;;;;5058135;28;20070;-65
2023/10/05 12:46:45;;;;;;;34.65;28.20;;;24.30;99.90;;;;;;5058880;28;20048;-67
2023/10/05 12:49:15;;;;;;;31.13;24.65;;;24.30;99.90;;;;;;5054900;28;20158;-66
2023/10/05 12:51:45;;;;;;;35.08;26.15;;;24.20;99.90;;;;;;5058357;28;20060;-67
2023/10/05 12:54:30;;;;;;;31.88;26.50;;;24.20;99.90;;;;;;5056565;28;20041;-68
2023/10/05 12:56:57;;;;;;;27.25;22.98;;;24.10;99.90;;;;;;5053632;28;20407;-67
2023/10/05 12:59:24;;;;;;;29.60;22.92;;;23.90;99.90;;;;;;5063702;28;20137;-67
2023/10/05 13:01:50;;;;;;;31.10;26.30;;;24.10;99.90;;;;;;5060148;28;20044;-67
2023/10/05 13:04:17;;;;;;;32.47;25.08;;;23.90;99.90;;;;;;5058095;28;20037;-67
2023/10/05 13:06:45;;;;;;;29.85;26.08;;;23.80;99.90;;;;;;5055231;28;20047;-67
2023/10/05 13:09:11;;;;;;;28.33;23.80;;;23.90;99.90;;;;;;5058977;28;20037;-67
2023/10/05 13:11:47;;;;;;;29.67;24.45;;;23.90;99.90;;;;;;5053722;28;20509;-67
2023/10/05 13:14:19;;;;;;;28.63;25.52;;;24.20;99.90;;;;;;5057600;28;20048;-67